RAIN

Not for real navigation. The accuracy of this data is not assured See disclaimer for more information



ICAO NAME COUNTRY WIND Kt GUST Kt VIS m TEMP/DEW C BARO METAR
CYKZ Toronto Buttonville Canada 3 0 200 4/4 29.42 CYKZ 251300Z 12003KT 0.125SM -RA FG VV001 04/04 A2942 RMK FG8 PCPN VRY LGT SLP968
CYQA Muskoka, Ont. Canada 3 0 200 5/5 29.38 CYQA 251315Z AUTO 23003KT 0.125SM -RA FG VV002 05/05 A2938 RMK SLP960
KCMX HANCOCK HOUGHTON CTY. MEMO MI United States 17 24 400 -8/-11 29.58 KCMX 251310Z AUTO 33017G24KT 0.25SM HZ BKN010 OVC023 M08/M11 A2958 RMK AO2 T10831111 PWINO FZRANO $
KLEW Auburn-Lewiston ME United States 0 0 400 3/3 29.85 KLEW 251256Z AUTO 00000KT 0.25SM -RA FG OVC002 03/03 A2985 RMK AO2 RAB1159 SLP124 P0000 T00280028
KIZG FRYEBURG EASTERN SLOPES RGNL ME United States 0 0 400 3/2 29.82 KIZG 251254Z AUTO 00000KT 0.25SM FG VV003 03/02 A2982 RMK AO2 RAB16E27UPB25E26 SLP104 P0000 T0028002

Show more